Time;durP1;ratioP1;P1;durP2;ratioP2;P2;SDS_P1;SDS_P2;PMS_P1;PMS_P2;Temp;Humidity;BMP_temperature;BMP_pressure;BME280_temperature;BME280_humidity;BME280_pressure;Samples;Min_cycle;Max_cycle;Signal;HPM_P1;HPM_P2
2022/05/21 00:01:19;;;;;;;26.98;13.43;;;;;;;;;;5020186;28;20076;-81
2022/05/21 00:03:46;;;;;;;24.00;13.57;;;;;;;;;;5025057;28;20049;-81
2022/05/21 00:06:13;;;;;;;22.00;12.65;;;;;;;;;;5031429;28;20175;-81
2022/05/21 00:08:40;;;;;;;25.00;13.32;;;;;;;;;;5037608;28;20117;-81
2022/05/21 00:11:07;;;;;;;24.20;13.30;;;;;;;;;;5033844;28;20095;-81
2022/05/21 00:13:34;;;;;;;29.15;14.95;;;;;;;;;;5037477;28;20082;-81
2022/05/21 00:16:00;;;;;;;26.02;13.75;;;;;;;;;;5043315;28;20045;-81
2022/05/21 00:18:29;;;;;;;26.75;13.48;;;;;;;;;;5033799;28;20515;-81
2022/05/21 00:20:56;;;;;;;26.77;14.13;;;;;;;;;;5041713;28;20072;-82
2022/05/21 00:23:25;;;;;;;27.73;14.23;;;;;;;;;;5025510;28;20042;-82
2022/05/21 00:25:57;;;;;;;26.70;14.27;;;;;;;;;;5026176;28;20061;-81
2022/05/21 00:28:25;;;;;;;23.38;13.10;;;;;;;;;;5026768;28;20058;-81
2022/05/21 00:30:51;;;;;;;23.45;13.52;;;;;;;;;;5024434;28;20050;-82
2022/05/21 00:33:18;;;;;;;24.67;13.52;;;;;;;;;;5036879;28;20056;-81
2022/05/21 00:35:48;;;;;;;23.98;13.35;;;;;;;;;;5037031;28;20077;-80
2022/05/21 00:38:15;;;;;;;23.17;13.77;;;;;;;;;;5034915;28;20095;-80
2022/05/21 00:40:42;;;;;;;22.45;13.50;;;;;;;;;;5038403;28;20305;-81
2022/05/21 00:43:38;;;;;;;25.30;13.40;;;;;;;;;;5038123;28;20041;-79
2022/05/21 00:46:07;;;;;;;26.80;14.25;;;;;;;;;;5041809;28;20034;-80
2022/05/21 00:48:35;;;;;;;27.27;13.63;;;;;;;;;;5034447;28;20057;-82
2022/05/21 00:51:04;;;;;;;25.20;13.02;;;;;;;;;;5018955;28;20049;-81
2022/05/21 00:53:31;;;;;;;22.52;12.98;;;;;;;;;;5016816;28;20042;-80
2022/05/21 00:55:59;;;;;;;21.48;13.00;;;;;;;;;;5017763;28;20081;-81
2022/05/21 01:01:16;;;;;;;20.48;11.88;;;;;;;;;;5018019;28;20543;-81
2022/05/21 01:03:44;;;;;;;18.35;11.98;;;;;;;;;;5017468;28;20092;-80
2022/05/21 01:06:12;;;;;;;19.70;12.68;;;;;;;;;;5017027;28;20050;-81
2022/05/21 01:08:39;;;;;;;19.45;11.63;;;;;;;;;;5015553;28;20065;-79
2022/05/21 01:11:11;;;;;;;19.08;11.57;;;;;;;;;;5015164;28;20094;-80
2022/05/21 01:13:41;;;;;;;21.08;12.55;;;;;;;;;;5016303;28;20129;-81
2022/05/21 01:16:09;;;;;;;22.60;11.67;;;;;;;;;;5017919;28;20046;-82
2022/05/21 01:18:36;;;;;;;21.08;12.02;;;;;;;;;;5018764;28;20276;-81
2022/05/21 01:21:40;;;;;;;17.92;11.60;;;;;;;;;;5027507;28;20045;-81
2022/05/21 01:24:10;;;;;;;17.40;11.02;;;;;;;;;;5015392;28;20061;-81
2022/05/21 01:26:38;;;;;;;19.63;10.27;;;;;;;;;;5017391;28;20053;-81
2022/05/21 01:29:13;;;;;;;20.75;11.52;;;;;;;;;;5017036;28;20053;-81
2022/05/21 01:31:40;;;;;;;18.42;10.82;;;;;;;;;;5017219;28;20085;-81
2022/05/21 01:34:07;;;;;;;18.50;10.77;;;;;;;;;;5017344;28;20054;-81
2022/05/21 01:36:34;;;;;;;20.55;11.05;;;;;;;;;;5016901;28;20058;-81
2022/05/21 01:39:01;;;;;;;18.40;10.75;;;;;;;;;;5016296;28;20045;-81
2022/05/21 01:41:29;;;;;;;20.02;10.90;;;;;;;;;;5016821;28;20108;-81
2022/05/21 01:46:40;;;;;;;17.33;10.02;;;;;;;;;;5016658;28;20135;-81
2022/05/21 01:49:07;;;;;;;20.92;9.98;;;;;;;;;;5016215;28;20073;-82
2022/05/21 01:51:34;;;;;;;18.77;9.88;;;;;;;;;;5016475;28;20042;-81
2022/05/21 01:54:00;;;;;;;18.75;10.95;;;;;;;;;;5016352;28;20123;-81
2022/05/21 01:56:28;;;;;;;16.92;9.07;;;;;;;;;;5016245;28;20535;-82
2022/05/21 01:58:55;;;;;;;20.60;9.60;;;;;;;;;;5016719;28;20057;-82
2022/05/21 02:01:22;;;;;;;19.75;10.13;;;;;;;;;;5016270;28;20058;-81
2022/05/21 02:03:49;;;;;;;18.42;9.57;;;;;;;;;;5016604;28;20077;-82
2022/05/21 02:06:16;;;;;;;15.88;9.10;;;;;;;;;;5035032;28;20034;-81
2022/05/21 02:08:42;;;;;;;17.85;8.90;;;;;;;;;;5036923;28;20050;-82
2022/05/21 02:13:38;;;;;;;14.75;8.60;;;;;;;;;;5006730;28;20057;-55
2022/05/21 02:16:05;;;;;;;18.20;9.00;;;;;;;;;;4995628;28;20050;-52
2022/05/21 02:18:32;;;;;;;15.95;8.70;;;;;;;;;;4995397;28;20054;-52
2022/05/21 02:20:59;;;;;;;14.77;8.75;;;;;;;;;;4995546;28;20050;-52
2022/05/21 02:23:26;;;;;;;13.50;8.32;;;;;;;;;;4995162;28;20046;-56
2022/05/21 02:29:18;;;;;;;13.60;8.68;;;;;;;;;;4993527;28;20096;-52
2022/05/21 02:35:07;;;;;;;16.33;9.27;;;;;;;;;;4988554;28;20419;-56
2022/05/21 02:40:31;;;;;;;16.75;9.75;;;;;;;;;;4954239;28;20579;-55
2022/05/21 02:42:58;;;;;;;15.18;9.65;;;;;;;;;;4985485;28;20058;-53
2022/05/21 02:45:28;;;;;;;17.95;10.10;;;;;;;;;;4995128;28;20069;-56
2022/05/21 02:47:56;;;;;;;17.73;9.45;;;;;;;;;;4978043;28;20492;-56
2022/05/21 02:50:25;;;;;;;16.67;9.60;;;;;;;;;;4982380;28;20051;-53
2022/05/21 02:52:53;;;;;;;14.30;10.20;;;;;;;;;;4994970;28;20526;-53
2022/05/21 02:55:20;;;;;;;17.98;10.65;;;;;;;;;;4994631;28;20062;-54
2022/05/21 02:57:47;;;;;;;16.73;9.95;;;;;;;;;;4994650;28;20047;-52
2022/05/21 03:00:18;;;;;;;16.20;9.90;;;;;;;;;;4994733;28;20057;-52
2022/05/21 03:02:46;;;;;;;16.52;10.18;;;;;;;;;;4996103;28;20407;-51
2022/05/21 03:05:14;;;;;;;20.00;10.43;;;;;;;;;;4995030;28;20535;-52
2022/05/21 03:07:42;;;;;;;14.65;9.30;;;;;;;;;;4994632;28;20054;-55
2022/05/21 03:10:22;;;;;;;15.30;9.25;;;;;;;;;;4994581;28;20055;-52
2022/05/21 03:12:53;;;;;;;19.08;10.13;;;;;;;;;;4994719;28;20140;-54
2022/05/21 03:15:23;;;;;;;15.07;9.73;;;;;;;;;;4994401;28;20061;-55
2022/05/21 03:17:51;;;;;;;17.45;9.77;;;;;;;;;;4994106;28;20052;-56
2022/05/21 03:20:21;;;;;;;17.20;9.63;;;;;;;;;;4994200;28;20100;-56
2022/05/21 03:22:48;;;;;;;16.98;10.35;;;;;;;;;;4994510;28;20050;-52
2022/05/21 03:25:16;;;;;;;13.65;9.23;;;;;;;;;;4994777;28;20061;-55
2022/05/21 03:27:43;;;;;;;16.67;9.55;;;;;;;;;;4994236;28;20058;-56
2022/05/21 03:30:14;;;;;;;18.38;9.48;;;;;;;;;;4994082;28;20219;-54
2022/05/21 03:32:41;;;;;;;17.38;10.57;;;;;;;;;;4994480;28;20527;-55
2022/05/21 03:35:11;;;;;;;17.08;10.40;;;;;;;;;;4994359;28;20053;-56
2022/05/21 03:37:39;;;;;;;15.03;9.57;;;;;;;;;;4994148;28;20046;-52
2022/05/21 03:40:09;;;;;;;14.60;9.10;;;;;;;;;;4993554;28;20295;-56
2022/05/21 03:42:36;;;;;;;16.23;8.77;;;;;;;;;;4993903;28;20397;-55
2022/05/21 03:45:03;;;;;;;13.68;9.75;;;;;;;;;;4993479;28;20057;-52
2022/05/21 03:47:30;;;;;;;14.25;8.90;;;;;;;;;;4994185;28;20066;-51
2022/05/21 03:49:57;;;;;;;15.20;9.25;;;;;;;;;;4993269;28;20073;-52
2022/05/21 03:52:25;;;;;;;14.82;8.70;;;;;;;;;;4993726;28;20412;-53
2022/05/21 03:54:52;;;;;;;14.57;9.32;;;;;;;;;;4993302;28;20062;-53
2022/05/21 03:57:19;;;;;;;15.32;8.80;;;;;;;;;;4993674;28;20050;-55
2022/05/21 03:59:46;;;;;;;13.70;8.45;;;;;;;;;;4984630;28;20051;-54
2022/05/21 04:02:13;;;;;;;14.98;8.90;;;;;;;;;;4974157;28;20061;-52
2022/05/21 04:04:40;;;;;;;15.75;8.80;;;;;;;;;;4974539;28;20502;-53
2022/05/21 04:07:08;;;;;;;13.93;8.38;;;;;;;;;;4974378;28;20082;-53
2022/05/21 04:09:36;;;;;;;12.02;8.05;;;;;;;;;;4974121;28;20062;-55
2022/05/21 04:12:04;;;;;;;11.00;7.78;;;;;;;;;;4983847;28;20133;-52
2022/05/21 04:14:31;;;;;;;14.40;9.73;;;;;;;;;;4993900;28;20104;-54
2022/05/21 04:16:59;;;;;;;12.07;8.77;;;;;;;;;;4993249;28;20054;-54
2022/05/21 04:19:27;;;;;;;11.60;7.07;;;;;;;;;;4993351;28;20058;-53
2022/05/21 04:21:54;;;;;;;9.90;7.10;;;;;;;;;;4993096;28;20058;-54
2022/05/21 04:24:21;;;;;;;12.13;8.07;;;;;;;;;;4993426;28;20054;-56
2022/05/21 04:26:49;;;;;;;13.32;7.95;;;;;;;;;;4993191;28;20050;-54
2022/05/21 04:29:16;;;;;;;13.73;7.57;;;;;;;;;;4992188;28;20108;-53
2022/05/21 04:31:43;;;;;;;11.55;7.88;;;;;;;;;;4993163;28;20050;-54
2022/05/21 04:34:11;;;;;;;12.25;7.68;;;;;;;;;;4993327;28;20140;-51
2022/05/21 04:36:38;;;;;;;13.88;7.82;;;;;;;;;;4992978;28;20050;-55
2022/05/21 04:39:05;;;;;;;12.27;7.65;;;;;;;;;;4993094;28;20050;-53
2022/05/21 04:41:32;;;;;;;10.85;7.50;;;;;;;;;;4992697;28;20051;-55
2022/05/21 04:44:02;;;;;;;12.88;7.90;;;;;;;;;;4993040;28;20125;-57
2022/05/21 04:46:29;;;;;;;13.90;7.57;;;;;;;;;;4987230;28;20050;-52
2022/05/21 04:48:56;;;;;;;12.18;7.25;;;;;;;;;;4985854;28;20050;-54
2022/05/21 04:51:23;;;;;;;12.93;7.80;;;;;;;;;;4992831;28;20048;-55
2022/05/21 04:53:50;;;;;;;9.95;7.00;;;;;;;;;;4992797;28;20057;-55
2022/05/21 04:56:17;;;;;;;11.13;7.22;;;;;;;;;;4992997;28;20130;-55
2022/05/21 04:58:44;;;;;;;11.85;7.22;;;;;;;;;;4991928;28;20150;-55
2022/05/21 05:01:13;;;;;;;11.50;7.55;;;;;;;;;;4992465;28;20057;-52
2022/05/21 05:03:40;;;;;;;12.65;7.90;;;;;;;;;;4992089;28;20464;-54
2022/05/21 05:06:08;;;;;;;14.57;7.88;;;;;;;;;;4992106;28;20054;-55
2022/05/21 05:08:36;;;;;;;12.40;7.75;;;;;;;;;;4992516;28;20459;-54
2022/05/21 05:11:03;;;;;;;16.05;8.02;;;;;;;;;;4992539;28;20050;-56
2022/05/21 05:13:30;;;;;;;14.93;8.95;;;;;;;;;;4992786;28;20050;-55
2022/05/21 05:15:57;;;;;;;14.88;8.75;;;;;;;;;;4992859;28;20050;-51
2022/05/21 05:18:27;;;;;;;11.25;7.60;;;;;;;;;;4992570;28;20110;-55
2022/05/21 05:20:54;;;;;;;13.35;7.53;;;;;;;;;;4992580;28;20495;-54
2022/05/21 05:23:21;;;;;;;13.57;7.95;;;;;;;;;;4986715;28;20054;-56
2022/05/21 05:25:48;;;;;;;10.88;7.07;;;;;;;;;;4973083;28;20105;-55
2022/05/21 05:28:18;;;;;;;14.98;8.02;;;;;;;;;;4972951;28;20053;-52
2022/05/21 05:30:46;;;;;;;11.32;7.65;;;;;;;;;;4972877;28;20055;-52
2022/05/21 05:33:13;;;;;;;10.77;7.63;;;;;;;;;;4972727;28;20055;-51
2022/05/21 05:35:42;;;;;;;14.95;7.57;;;;;;;;;;4973042;28;20058;-52
2022/05/21 05:38:10;;;;;;;10.73;6.93;;;;;;;;;;4973055;28;20416;-51
2022/05/21 05:40:38;;;;;;;12.98;7.07;;;;;;;;;;4975161;28;20075;-52
2022/05/21 05:43:05;;;;;;;11.77;7.53;;;;;;;;;;4976735;28;20047;-54
2022/05/21 05:45:32;;;;;;;10.20;6.63;;;;;;;;;;4977144;28;20106;-54
2022/05/21 05:47:59;;;;;;;9.93;6.93;;;;;;;;;;4993766;28;20523;-58
2022/05/21 05:50:26;;;;;;;10.95;6.97;;;;;;;;;;4996036;28;20122;-53
2022/05/21 05:52:54;;;;;;;9.80;6.50;;;;;;;;;;4996094;28;20054;-52
2022/05/21 05:55:21;;;;;;;12.23;6.53;;;;;;;;;;4996246;28;20042;-56
2022/05/21 05:57:52;;;;;;;11.25;6.40;;;;;;;;;;4996007;28;20050;-55
2022/05/21 06:00:19;;;;;;;9.77;6.00;;;;;;;;;;4996044;28;20058;-53
2022/05/21 06:03:02;;;;;;;9.02;5.90;;;;;;;;;;4996245;28;20054;-52
2022/05/21 06:05:31;;;;;;;11.55;6.70;;;;;;;;;;4996034;28;20479;-52
2022/05/21 06:08:01;;;;;;;7.60;6.35;;;;;;;;;;4995337;28;20129;-55
2022/05/21 06:10:30;;;;;;;9.48;6.80;;;;;;;;;;4977149;28;20054;-53
2022/05/21 06:12:57;;;;;;;10.95;6.15;;;;;;;;;;4979845;28;20500;-52
2022/05/21 06:15:25;;;;;;;10.13;6.25;;;;;;;;;;4995762;28;20483;-52
2022/05/21 06:17:52;;;;;;;8.35;6.00;;;;;;;;;;4978634;28;20058;-52
2022/05/21 06:20:21;;;;;;;9.00;5.57;;;;;;;;;;4995483;28;20055;-53
2022/05/21 06:22:49;;;;;;;9.25;5.68;;;;;;;;;;4995485;28;20121;-56
2022/05/21 06:25:20;;;;;;;8.18;5.43;;;;;;;;;;4991869;28;20050;-55
2022/05/21 06:27:48;;;;;;;8.93;5.70;;;;;;;;;;4995607;28;20058;-57
2022/05/21 06:30:17;;;;;;;12.30;5.82;;;;;;;;;;4983119;28;20050;-55
2022/05/21 06:32:44;;;;;;;9.93;5.43;;;;;;;;;;4975952;28;20055;-55
2022/05/21 06:35:12;;;;;;;8.15;5.82;;;;;;;;;;4983775;28;20408;-53
2022/05/21 06:37:40;;;;;;;8.05;5.03;;;;;;;;;;4978885;28;20053;-55
2022/05/21 06:40:08;;;;;;;8.95;5.72;;;;;;;;;;4995017;28;20480;-55
2022/05/21 06:42:37;;;;;;;9.02;5.32;;;;;;;;;;4995301;28;20050;-56
2022/05/21 06:45:04;;;;;;;10.73;5.70;;;;;;;;;;4995190;28;20046;-54
2022/05/21 06:47:31;;;;;;;12.75;6.03;;;;;;;;;;4981586;28;20054;-56
2022/05/21 06:49:59;;;;;;;9.15;5.70;;;;;;;;;;4992389;28;20046;-57
2022/05/21 06:52:27;;;;;;;9.40;6.20;;;;;;;;;;4993912;28;20081;-57
2022/05/21 06:54:54;;;;;;;7.85;5.97;;;;;;;;;;4995040;28;20061;-54
2022/05/21 06:57:26;;;;;;;9.75;6.78;;;;;;;;;;4995040;28;20050;-55
2022/05/21 06:59:54;;;;;;;10.02;6.60;;;;;;;;;;4995252;28;20062;-54
2022/05/21 07:02:21;;;;;;;9.55;7.20;;;;;;;;;;4994960;28;20424;-55
2022/05/21 07:07:35;;;;;;;10.23;6.75;;;;;;;;;;4994809;28;20056;-56
2022/05/21 07:10:06;;;;;;;10.05;6.65;;;;;;;;;;4994963;28;20058;-53
2022/05/21 07:12:34;;;;;;;12.38;8.07;;;;;;;;;;4994586;28;20065;-57
2022/05/21 07:15:04;;;;;;;10.38;7.30;;;;;;;;;;4995052;28;20050;-57
2022/05/21 07:17:31;;;;;;;9.57;7.07;;;;;;;;;;4994908;28;20050;-55
2022/05/21 07:19:59;;;;;;;12.85;8.25;;;;;;;;;;4994938;28;20054;-56
2022/05/21 07:22:25;;;;;;;10.73;6.95;;;;;;;;;;4994701;28;20062;-57
2022/05/21 07:24:52;;;;;;;8.00;5.78;;;;;;;;;;4994943;28;20057;-58
2022/05/21 07:27:19;;;;;;;12.05;6.75;;;;;;;;;;4994874;28;20058;-55
2022/05/21 07:29:46;;;;;;;9.27;5.07;;;;;;;;;;4994222;28;20057;-55
2022/05/21 07:32:20;;;;;;;7.60;5.30;;;;;;;;;;4994615;28;20459;-58
2022/05/21 07:34:47;;;;;;;10.82;6.15;;;;;;;;;;4994208;28;20050;-59
2022/05/21 07:37:14;;;;;;;8.60;5.80;;;;;;;;;;4994475;28;20058;-55
2022/05/21 07:39:42;;;;;;;11.85;6.60;;;;;;;;;;4994276;28;20057;-57
2022/05/21 07:42:09;;;;;;;9.70;5.97;;;;;;;;;;4994052;28;20042;-57
2022/05/21 07:44:36;;;;;;;15.00;7.97;;;;;;;;;;4993972;28;20081;-57
2022/05/21 07:47:03;;;;;;;13.18;7.90;;;;;;;;;;4993687;28;20160;-58
2022/05/21 07:49:31;;;;;;;10.77;6.75;;;;;;;;;;4993890;28;20411;-56
2022/05/21 07:51:59;;;;;;;9.30;5.95;;;;;;;;;;4994048;28;20050;-57
2022/05/21 07:54:27;;;;;;;12.00;6.38;;;;;;;;;;4992649;28;20050;-56
2022/05/21 07:56:54;;;;;;;8.98;5.88;;;;;;;;;;4991274;28;20069;-57
2022/05/21 07:59:30;;;;;;;9.65;5.85;;;;;;;;;;4993914;28;20101;-55
2022/05/21 08:02:20;;;;;;;9.52;6.25;;;;;;;;;;4988399;28;20057;-56
2022/05/21 08:08:11;;;;;;;11.80;7.25;;;;;;;;;;4991449;28;20048;-57
2022/05/21 08:17:21;;;;;;;11.57;6.28;;;;;;;;;;5017080;22;20049;-77
2022/05/21 08:19:47;;;;;;;7.07;4.95;;;;;;;;;;5015121;28;20069;-78
2022/05/21 08:27:49;;;;;;;;;;;;;;;;;;5000227;28;20050;-77
2022/05/21 08:30:15;;;;;;;9.30;5.50;;;;;;;;;;5041172;28;19928;-77
2022/05/21 08:32:42;;;;;;;9.52;5.35;;;;;;;;;;5039798;28;20123;-77
2022/05/21 08:35:09;;;;;;;6.90;4.18;;;;;;;;;;5038545;28;20061;-77
2022/05/21 08:37:36;;;;;;;7.45;4.25;;;;;;;;;;5020778;28;20076;-77
2022/05/21 08:40:05;;;;;;;7.97;4.85;;;;;;;;;;5019677;28;20106;-78
2022/05/21 08:42:34;;;;;;;8.07;4.90;;;;;;;;;;5020564;28;20056;-77
2022/05/21 08:45:13;;;;;;;9.55;4.50;;;;;;;;;;5019317;28;20046;-77
2022/05/21 08:47:40;;;;;;;8.43;4.68;;;;;;;;;;5018483;28;20046;-77
2022/05/21 08:50:10;;;;;;;10.07;4.90;;;;;;;;;;5019865;28;20049;-76
2022/05/21 08:52:42;;;;;;;;;;;;;;;;;;5020218;28;20513;-76
2022/05/21 08:55:12;;;;;;;7.82;4.55;;;;;;;;;;5019405;28;20482;-77
2022/05/21 08:57:43;;;;;;;6.57;4.78;;;;;;;;;;5037218;28;20107;-77
2022/05/21 09:00:14;;;;;;;7.50;3.90;;;;;;;;;;5006900;28;20459;-77
2022/05/21 09:02:41;;;;;;;7.03;4.03;;;;;;;;;;5018145;28;20088;-77
2022/05/21 09:05:15;;;;;;;7.93;4.35;;;;;;;;;;5018629;28;20072;-77
2022/05/21 09:07:51;;;;;;;5.70;3.97;;;;;;;;;;5018335;28;20056;-77
2022/05/21 09:10:37;;;;;;;7.65;4.40;;;;;;;;;;5018810;28;20517;-76
2022/05/21 09:13:11;;;;;;;6.93;4.45;;;;;;;;;;5018790;28;20448;-77
2022/05/21 09:18:23;;;;;;;7.28;4.63;;;;;;;;;;5021294;28;20076;-78
2022/05/21 09:20:58;;;;;;;6.85;4.20;;;;;;;;;;5021597;28;20386;-77
2022/05/21 09:23:25;;;;;;;6.28;4.10;;;;;;;;;;5021465;28;20045;-78
2022/05/21 09:26:06;;;;;;;7.60;4.50;;;;;;;;;;5029857;28;20116;-79
2022/05/21 09:28:37;;;;;;;8.10;4.18;;;;;;;;;;5028256;28;20097;-77
2022/05/21 09:31:06;;;;;;;8.07;4.40;;;;;;;;;;5021555;28;20054;-78
2022/05/21 09:33:35;;;;;;;8.88;4.35;;;;;;;;;;5025392;28;20065;-77
2022/05/21 09:36:02;;;;;;;37.15;18.33;;;;;;;;;;5041111;28;20045;-78
2022/05/21 09:38:31;;;;;;;41.95;29.30;;;;;;;;;;5041578;28;20056;-78
2022/05/21 09:41:13;;;;;;;14.38;11.07;;;;;;;;;;5039543;28;20046;-78
2022/05/21 09:46:34;;;;;;;8.60;5.10;;;;;;;;;;5030591;28;20064;-77
2022/05/21 09:49:19;;;;;;;9.27;5.35;;;;;;;;;;5019923;28;20082;-77
2022/05/21 09:51:54;;;;;;;13.10;7.85;;;;;;;;;;5021370;28;20408;-79
2022/05/21 09:54:25;;;;;;;11.73;5.90;;;;;;;;;;5021084;28;20050;-78
2022/05/21 09:56:53;;;;;;;;;;;;;;;;;;5022769;28;20567;-77
2022/05/21 09:59:23;;;;;;;9.85;6.00;;;;;;;;;;5021719;28;19976;-77
2022/05/21 10:01:53;;;;;;;7.33;4.63;;;;;;;;;;5021568;28;20092;-77
2022/05/21 10:04:27;;;;;;;10.50;5.05;;;;;;;;;;5022140;28;20053;-78
2022/05/21 10:06:58;;;;;;;7.57;4.68;;;;;;;;;;5020212;28;20493;-78
2022/05/21 10:12:22;;;;;;;8.65;4.38;;;;;;;;;;5020495;28;20589;-76
2022/05/21 10:14:53;;;;;;;8.38;4.07;;;;;;;;;;5022929;28;20046;-77
2022/05/21 10:17:28;;;;;;;7.05;4.57;;;;;;;;;;5021581;28;20049;-78
2022/05/21 10:20:12;;;;;;;7.20;4.70;;;;;;;;;;5019045;28;20042;-78
2022/05/21 10:22:47;;;;;;;6.97;4.10;;;;;;;;;;5017152;28;20046;-76
2022/05/21 10:25:17;;;;;;;7.30;4.82;;;;;;;;;;5016353;28;20072;-77
2022/05/21 10:28:07;;;;;;;7.68;4.10;;;;;;;;;;5016961;28;20085;-77
2022/05/21 10:30:48;;;;;;;8.15;4.75;;;;;;;;;;5016426;28;20069;-79
2022/05/21 10:33:33;;;;;;;7.57;3.70;;;;;;;;;;5017048;28;20488;-79
2022/05/21 10:36:14;;;;;;;5.38;3.45;;;;;;;;;;5016802;28;20096;-76
2022/05/21 10:39:04;;;;;;;;;;;;;;;;;;5015122;28;20147;-77
2022/05/21 10:41:38;;;;;;;;;;;;;;;;;;4997740;28;19943;-78
2022/05/21 10:44:19;;;;;;;7.78;4.20;;;;;;;;;;4999610;28;19929;-77
2022/05/21 10:46:56;;;;;;;5.25;3.40;;;;;;;;;;5006311;28;20050;-78
2022/05/21 10:49:57;;;;;;;8.40;4.00;;;;;;;;;;5017452;28;20088;-77
2022/05/21 10:52:30;;;;;;;;;;;;;;;;;;5013496;28;20053;-73
2022/05/21 10:55:09;;;;;;;5.05;3.47;;;;;;;;;;5015509;28;19964;-74
2022/05/21 10:57:48;;;;;;;10.13;3.15;;;;;;;;;;5019099;28;20061;-77
2022/05/21 11:00:20;;;;;;;5.13;2.65;;;;;;;;;;5019399;28;20057;-76
2022/05/21 11:03:25;;;;;;;4.80;2.40;;;;;;;;;;5007605;28;20092;-75
2022/05/21 11:06:17;;;;;;;6.75;2.42;;;;;;;;;;5012016;28;20528;-75
2022/05/21 11:08:53;;;;;;;4.75;2.15;;;;;;;;;;5034706;28;20089;-76
2022/05/21 11:11:30;;;;;;;5.30;2.38;;;;;;;;;;5023037;28;20069;-75
2022/05/21 11:14:01;;;;;;;7.03;2.22;;;;;;;;;;5015098;28;20115;-75
2022/05/21 11:16:35;;;;;;;5.30;2.00;;;;;;;;;;5015072;28;20137;-76
2022/05/21 11:19:07;;;;;;;5.93;1.88;;;;;;;;;;5015470;28;20048;-77
2022/05/21 11:21:37;;;;;;;4.47;1.77;;;;;;;;;;5015872;28;20041;-77
2022/05/21 11:24:09;;;;;;;3.67;2.00;;;;;;;;;;5026741;28;20097;-77
2022/05/21 11:26:42;;;;;;;4.50;1.88;;;;;;;;;;5016688;28;20056;-75
2022/05/21 11:29:13;;;;;;;4.13;1.80;;;;;;;;;;5009082;28;20047;-75
2022/05/21 11:37:27;;;;;;;3.45;1.63;;;;;;;;;;5012136;28;20045;-76
2022/05/21 11:39:55;;;;;;;5.03;1.90;;;;;;;;;;5015355;28;20046;-77
2022/05/21 11:42:23;;;;;;;4.72;1.90;;;;;;;;;;5015038;28;20138;-76
2022/05/21 11:45:02;;;;;;;8.45;2.10;;;;;;;;;;5014131;28;20041;-75
2022/05/21 11:47:41;;;;;;;4.10;1.70;;;;;;;;;;5013877;28;20100;-79
2022/05/21 11:50:29;;;;;;;12.95;5.22;;;;;;;;;;5012523;28;20500;-74
2022/05/21 11:53:08;;;;;;;3.75;1.60;;;;;;;;;;5013214;28;20100;-74
2022/05/21 11:56:01;;;;;;;3.50;1.73;;;;;;;;;;5014310;28;20051;-75
2022/05/21 11:59:15;;;;;;;4.63;2.10;;;;;;;;;;5010032;28;20099;-75
2022/05/21 12:02:00;;;;;;;4.18;2.05;;;;;;;;;;5013916;28;20052;-75
2022/05/21 12:04:48;;;;;;;3.22;2.00;;;;;;;;;;5013002;28;20519;-75
2022/05/21 12:07:17;;;;;;;4.50;1.63;;;;;;;;;;5019622;28;20080;-75
2022/05/21 12:10:01;;;;;;;4.45;2.10;;;;;;;;;;5013148;28;20062;-74
2022/05/21 12:12:29;;;;;;;5.93;1.85;;;;;;;;;;5013386;28;20151;-76
2022/05/21 12:14:57;;;;;;;5.28;2.92;;;;;;;;;;5013589;28;20042;-74
2022/05/21 12:17:44;;;;;;;7.22;2.08;;;;;;;;;;5013134;28;20658;-75
2022/05/21 12:20:13;;;;;;;4.30;1.90;;;;;;;;;;5013373;28;20108;-76
2022/05/21 12:22:44;;;;;;;3.33;1.48;;;;;;;;;;5013414;28;20050;-75
2022/05/21 12:25:32;;;;;;;4.70;1.90;;;;;;;;;;5012993;28;20054;-76
2022/05/21 12:28:03;;;;;;;2.88;1.45;;;;;;;;;;5014546;28;20069;-77
2022/05/21 12:30:30;;;;;;;4.03;1.80;;;;;;;;;;5015223;28;20055;-77
2022/05/21 12:32:59;;;;;;;4.65;1.80;;;;;;;;;;5014928;28;20459;-77
2022/05/21 12:35:49;;;;;;;3.63;1.90;;;;;;;;;;5014420;28;20069;-76
2022/05/21 12:38:26;;;;;;;5.38;2.10;;;;;;;;;;5011077;28;20147;-76
2022/05/21 12:41:03;;;;;;;4.65;2.17;;;;;;;;;;5014539;28;20613;-76
2022/05/21 12:43:42;;;;;;;3.58;1.83;;;;;;;;;;4994632;28;20050;-77
2022/05/21 12:46:19;;;;;;;4.43;2.40;;;;;;;;;;4997765;28;20101;-77
2022/05/21 12:48:49;;;;;;;3.97;1.90;;;;;;;;;;5013673;28;20077;-77
2022/05/21 12:51:31;;;;;;;5.20;2.58;;;;;;;;;;5015046;28;20042;-76
2022/05/21 12:53:59;;;;;;;4.13;1.67;;;;;;;;;;5012380;28;20483;-76
2022/05/21 12:56:29;;;;;;;5.82;2.30;;;;;;;;;;5013493;28;20069;-76
2022/05/21 12:59:05;;;;;;;4.07;1.90;;;;;;;;;;5024328;28;20046;-76
2022/05/21 13:01:32;;;;;;;6.95;2.35;;;;;;;;;;5013572;28;20042;-77
2022/05/21 13:04:00;;;;;;;4.45;1.95;;;;;;;;;;5013147;28;20547;-77
2022/05/21 13:06:31;;;;;;;5.07;2.17;;;;;;;;;;5013066;28;20077;-77
2022/05/21 13:09:00;;;;;;;5.28;2.88;;;;;;;;;;5013002;28;20137;-77
2022/05/21 13:11:36;;;;;;;8.73;2.42;;;;;;;;;;5016584;28;20053;-78
2022/05/21 13:14:10;;;;;;;4.82;2.00;;;;;;;;;;5013543;28;20493;-79
2022/05/21 13:16:48;;;;;;;4.20;2.25;;;;;;;;;;5021080;28;20056;-78
2022/05/21 13:19:50;;;;;;;4.68;2.20;;;;;;;;;;5002858;28;20092;-75
2022/05/21 13:22:26;;;;;;;4.38;2.30;;;;;;;;;;5015056;28;20046;-77
2022/05/21 13:25:00;;;;;;;4.70;2.25;;;;;;;;;;5017553;28;20062;-78
2022/05/21 13:27:27;;;;;;;6.72;2.25;;;;;;;;;;5015260;28;20112;-76
2022/05/21 13:29:55;;;;;;;4.57;2.10;;;;;;;;;;5014639;28;20073;-77
2022/05/21 13:32:25;;;;;;;4.43;2.08;;;;;;;;;;5015452;28;20042;-77
2022/05/21 13:34:55;;;;;;;4.65;1.90;;;;;;;;;;5015940;28;20053;-77
2022/05/21 13:37:30;;;;;;;3.67;1.88;;;;;;;;;;5016018;28;20151;-77
2022/05/21 13:40:02;;;;;;;5.80;2.00;;;;;;;;;;5014730;28;20081;-77
2022/05/21 13:42:29;;;;;;;6.28;3.17;;;;;;;;;;5016175;28;20085;-78
2022/05/21 13:45:04;;;;;;;9.75;2.65;;;;;;;;;;5016029;28;20042;-76
2022/05/21 13:47:35;;;;;;;4.50;2.30;;;;;;;;;;5014939;28;20078;-76
2022/05/21 13:50:05;;;;;;;5.13;2.20;;;;;;;;;;5014908;28;20084;-77
2022/05/21 13:52:33;;;;;;;6.45;2.08;;;;;;;;;;5015296;28;20061;-77
2022/05/21 13:55:00;;;;;;;5.78;2.35;;;;;;;;;;5017027;28;20046;-78
2022/05/21 13:57:30;;;;;;;2.72;1.50;;;;;;;;;;5017094;28;20053;-77
2022/05/21 13:59:59;;;;;;;5.22;1.80;;;;;;;;;;5016109;28;20050;-77
2022/05/21 14:02:47;;;;;;;5.20;2.58;;;;;;;;;;5018546;28;20093;-77
2022/05/21 14:05:28;;;;;;;5.80;2.33;;;;;;;;;;5021260;28;20049;-78
2022/05/21 14:07:58;;;;;;;4.00;1.83;;;;;;;;;;5022880;28;20050;-77
2022/05/21 14:10:47;;;;;;;6.20;2.40;;;;;;;;;;5021502;28;20042;-78
2022/05/21 14:13:28;;;;;;;5.85;2.40;;;;;;;;;;5022129;28;20092;-76
2022/05/21 14:15:58;;;;;;;4.03;1.92;;;;;;;;;;5023052;28;20045;-77
2022/05/21 14:18:32;;;;;;;3.85;2.00;;;;;;;;;;5024212;28;20147;-78
2022/05/21 14:21:04;;;;;;;5.22;2.70;;;;;;;;;;5019139;28;20058;-83
2022/05/21 14:23:34;;;;;;;4.43;2.53;;;;;;;;;;5019377;28;20099;-77
2022/05/21 14:26:27;;;;;;;3.30;1.80;;;;;;;;;;5019297;28;20046;-78
2022/05/21 14:28:55;;;;;;;4.65;2.00;;;;;;;;;;5014035;28;20072;-77
2022/05/21 14:31:37;;;;;;;8.65;3.85;;;;;;;;;;5018909;28;20073;-77
2022/05/21 14:34:08;;;;;;;7.07;2.20;;;;;;;;;;5015395;28;20085;-79
2022/05/21 14:36:40;;;;;;;3.80;2.15;;;;;;;;;;5017389;28;20073;-76
2022/05/21 14:39:07;;;;;;;7.00;3.08;;;;;;;;;;5017774;28;20058;-77
2022/05/21 14:41:37;;;;;;;9.15;2.47;;;;;;;;;;5018286;28;20497;-77
2022/05/21 14:44:06;;;;;;;5.05;2.20;;;;;;;;;;5018534;28;20582;-78
2022/05/21 14:49:18;;;;;;;5.65;2.28;;;;;;;;;;4998611;28;20061;-77
2022/05/21 14:54:35;;;;;;;6.38;2.53;;;;;;;;;;4998603;28;20053;-77
2022/05/21 14:57:02;;;;;;;4.10;2.42;;;;;;;;;;4998014;28;20334;-77
2022/05/21 14:59:29;;;;;;;2.83;1.60;;;;;;;;;;4998233;28;20521;-77
2022/05/21 15:01:56;;;;;;;4.18;1.85;;;;;;;;;;4996711;28;20061;-77
2022/05/21 15:04:22;;;;;;;8.50;3.22;;;;;;;;;;4997819;28;20116;-77
2022/05/21 15:06:51;;;;;;;3.70;2.38;;;;;;;;;;4997490;28;20050;-78
2022/05/21 15:09:18;;;;;;;4.97;2.10;;;;;;;;;;4997153;28;20418;-78
2022/05/21 15:11:47;;;;;;;4.22;2.10;;;;;;;;;;4997096;28;20050;-78
2022/05/21 15:14:14;;;;;;;4.88;2.30;;;;;;;;;;4997845;28;20057;-79
2022/05/21 15:16:41;;;;;;;5.82;2.28;;;;;;;;;;4997743;28;20051;-77
2022/05/21 15:19:08;;;;;;;4.97;2.08;;;;;;;;;;4997684;28;20057;-77
2022/05/21 15:21:37;;;;;;;5.32;1.98;;;;;;;;;;4997838;28;20512;-79
2022/05/21 15:24:06;;;;;;;4.07;2.17;;;;;;;;;;4997627;28;20054;-77
2022/05/21 15:26:33;;;;;;;6.40;2.60;;;;;;;;;;4997955;28;20054;-77
2022/05/21 15:29:00;;;;;;;4.65;2.40;;;;;;;;;;4996763;28;20081;-78
2022/05/21 15:31:30;;;;;;;6.25;2.10;;;;;;;;;;4997381;28;20125;-78
2022/05/21 15:33:58;;;;;;;5.75;2.85;;;;;;;;;;4997125;28;20073;-78
2022/05/21 15:36:25;;;;;;;4.13;1.90;;;;;;;;;;4997763;28;20057;-76
2022/05/21 15:38:52;;;;;;;5.65;2.60;;;;;;;;;;4996761;28;20050;-77
2022/05/21 15:41:24;;;;;;;6.50;2.70;;;;;;;;;;4996978;28;20532;-77
2022/05/21 15:43:52;;;;;;;6.78;3.58;;;;;;;;;;4997834;28;20150;-76
2022/05/21 15:46:19;;;;;;;5.22;2.22;;;;;;;;;;5001816;28;20500;-77
2022/05/21 15:48:46;;;;;;;6.28;2.28;;;;;;;;;;5017702;28;20084;-77
2022/05/21 15:51:15;;;;;;;4.72;2.00;;;;;;;;;;5017297;28;20088;-77
2022/05/21 15:53:45;;;;;;;;;;;;;;;;;;5017587;28;20069;-78